createdAt,value
2018-04-24T00:00:52.328Z,14.80
2018-04-24T00:03:20.872Z,10.90
2018-04-24T00:05:48.936Z,10.97
2018-04-24T00:08:17.008Z,9.47
2018-04-24T00:10:45.445Z,9.53
2018-04-24T00:13:13.498Z,11.73
2018-04-24T00:15:41.579Z,13.00
2018-04-24T00:18:10.275Z,9.20
2018-04-24T00:20:38.279Z,8.43
2018-04-24T00:23:06.341Z,13.03
2018-04-24T00:25:34.786Z,10.00
2018-04-24T00:28:02.849Z,13.00
2018-04-24T00:30:30.919Z,13.73
2018-04-24T00:32:59.566Z,11.10
2018-04-24T00:35:27.633Z,11.30
2018-04-24T00:37:55.693Z,7.10
2018-04-24T00:40:24.130Z,8.83
2018-04-24T00:42:52.189Z,8.80
2018-04-24T00:45:20.265Z,23.80
2018-04-24T00:47:49.057Z,10.50
2018-04-24T00:50:17.112Z,13.07
2018-04-24T00:52:46.017Z,13.00
2018-04-24T00:55:14.986Z,10.03
2018-04-24T00:57:43.983Z,9.20
2018-04-24T01:00:12.820Z,13.63
2018-04-24T01:02:40.893Z,10.50
2018-04-24T01:05:09.389Z,12.27
2018-04-24T01:07:37.485Z,18.40
2018-04-24T01:10:06.315Z,8.97
2018-04-24T01:12:34.859Z,8.40
2018-04-24T01:15:03.685Z,9.67
2018-04-24T01:17:31.758Z,8.80
2018-04-24T01:19:59.982Z,8.83
2018-04-24T01:22:28.050Z,10.37
2018-04-24T01:24:56.110Z,11.80
2018-04-24T01:27:24.497Z,8.60
2018-04-24T01:29:52.564Z,10.73
2018-04-24T01:32:20.632Z,13.30
2018-04-24T01:34:49.323Z,8.57
2018-04-24T01:37:17.399Z,11.13
2018-04-24T01:39:45.483Z,8.33
2018-04-24T01:42:13.854Z,9.73
2018-04-24T01:44:41.951Z,9.23
2018-04-24T01:47:10.768Z,8.10
2018-04-24T01:49:38.979Z,9.43
2018-04-24T01:52:07.054Z,9.63
2018-04-24T01:54:35.593Z,10.53
2018-04-24T01:57:03.817Z,10.80
2018-04-24T01:59:31.891Z,9.73
2018-04-24T02:01:59.949Z,10.63
2018-04-24T02:04:28.326Z,15.10
2018-04-24T02:06:56.397Z,10.03
2018-04-24T02:09:24.450Z,9.83
2018-04-24T02:11:52.847Z,9.50
2018-04-24T02:14:20.929Z,10.10
2018-04-24T02:16:48.996Z,13.90
2018-04-24T02:19:17.184Z,10.73
2018-04-24T02:21:45.257Z,10.60
2018-04-24T02:24:13.316Z,12.47
2018-04-24T02:26:41.737Z,9.70
2018-04-24T02:29:09.824Z,13.90
2018-04-24T02:31:37.882Z,10.43
2018-04-24T02:34:06.135Z,10.80
2018-04-24T02:36:34.968Z,11.57
2018-04-24T02:39:03.851Z,11.30
2018-04-24T02:41:32.255Z,8.50
2018-04-24T02:44:00.317Z,13.93
2018-04-24T02:46:29.162Z,10.43
2018-04-24T02:48:57.601Z,11.17
2018-04-24T02:51:25.669Z,13.10
2018-04-24T02:53:53.736Z,8.93
2018-04-24T02:56:22.597Z,16.00
2018-04-24T02:58:50.656Z,11.20
2018-04-24T03:01:18.733Z,12.60
2018-04-24T03:03:47.245Z,12.77
2018-04-24T03:06:15.313Z,9.53
2018-04-24T03:08:43.393Z,13.37
2018-04-24T03:11:11.773Z,10.27
2018-04-24T03:13:39.832Z,11.90
2018-04-24T03:16:07.910Z,18.07
2018-04-24T03:18:36.308Z,14.27
2018-04-24T03:21:04.375Z,12.80
2018-04-24T03:23:32.468Z,13.50
2018-04-24T03:26:01.341Z,11.77
2018-04-24T03:28:29.407Z,10.67
2018-04-24T03:30:57.490Z,15.13
2018-04-24T03:33:25.949Z,14.07
2018-04-24T03:35:54.004Z,9.80
2018-04-24T03:38:22.090Z,10.03
2018-04-24T03:40:50.468Z,10.23
2018-04-24T03:43:18.533Z,8.53
2018-04-24T03:45:46.626Z,7.80
2018-04-24T03:48:15.289Z,9.37
2018-04-24T03:50:43.349Z,10.87
2018-04-24T03:53:11.429Z,11.67
2018-04-24T03:55:39.818Z,10.60
2018-04-24T03:58:08.365Z,16.67
2018-04-24T04:00:36.431Z,15.63
2018-04-24T04:03:04.666Z,10.07
2018-04-24T04:05:33.497Z,10.70
2018-04-24T04:08:01.558Z,10.87
2018-04-24T04:10:30.122Z,16.20
2018-04-24T04:12:58.954Z,12.77
2018-04-24T04:15:27.019Z,13.90
2018-04-24T04:18:06.912Z,14.03
2018-04-24T04:20:47.513Z,11.00
2018-04-24T04:23:27.397Z,9.33
2018-04-24T04:25:55.642Z,13.10
2018-04-24T04:28:23.714Z,11.97
2018-04-24T04:30:51.776Z,18.27
2018-04-24T04:33:20.218Z,14.20
2018-04-24T04:35:48.285Z,13.57
2018-04-24T04:38:17.580Z,16.07
2018-04-24T04:40:45.836Z,12.80
2018-04-24T04:43:13.898Z,12.33
2018-04-24T04:45:41.963Z,11.00
2018-04-24T04:48:10.485Z,21.30
2018-04-24T04:50:38.553Z,16.10
2018-04-24T04:53:06.620Z,12.70
2018-04-24T04:55:35.018Z,14.07
2018-04-24T04:58:03.070Z,12.50
2018-04-24T05:00:31.360Z,14.20
2018-04-24T05:02:59.858Z,12.37
2018-04-24T05:05:28.687Z,16.77
2018-04-24T05:07:56.744Z,15.00
2018-04-24T05:10:25.278Z,17.37
2018-04-24T05:12:53.376Z,25.93
2018-04-24T05:15:21.404Z,14.90
2018-04-24T05:17:49.792Z,15.50
2018-04-24T05:20:17.912Z,14.83
2018-04-24T05:22:45.982Z,22.13
2018-04-24T05:25:14.422Z,21.67
2018-04-24T05:27:42.531Z,22.60
2018-04-24T05:30:10.587Z,17.13
2018-04-24T05:32:39.797Z,19.77
2018-04-24T05:35:07.880Z,15.50
2018-04-24T05:37:35.954Z,19.90
2018-04-24T05:40:04.333Z,16.70
2018-04-24T05:42:32.421Z,17.57
2018-04-24T05:45:00.483Z,17.80
2018-04-24T05:47:28.799Z,24.20
2018-04-24T05:49:56.869Z,17.80
2018-04-24T05:52:24.948Z,14.10
2018-04-24T05:54:53.339Z,16.50
2018-04-24T05:57:22.184Z,18.17
2018-04-24T05:59:50.248Z,25.27
2018-04-24T06:02:19.849Z,20.63
2018-04-24T06:04:47.914Z,26.70
2018-04-24T06:07:15.984Z,19.67
2018-04-24T06:09:44.236Z,24.77
2018-04-24T06:12:14.016Z,22.70
2018-04-24T06:14:42.082Z,23.90
2018-04-24T06:17:10.349Z,32.10
2018-04-24T06:19:38.422Z,25.37
2018-04-24T06:22:06.500Z,26.90
2018-04-24T06:24:34.780Z,24.57
2018-04-24T06:27:02.848Z,28.80
2018-04-24T06:29:30.908Z,26.63
2018-04-24T06:31:59.324Z,30.60
2018-04-24T06:34:28.170Z,34.00
2018-04-24T06:36:56.235Z,25.73
2018-04-24T06:39:24.530Z,23.13
2018-04-24T06:41:52.610Z,23.17
2018-04-24T06:44:20.680Z,25.10
2018-04-24T06:46:48.978Z,22.87
2018-04-24T06:49:17.805Z,21.33
2018-04-24T06:51:45.871Z,25.80
2018-04-24T06:54:14.153Z,22.10
2018-04-24T06:56:42.214Z,24.80
2018-04-24T06:59:10.288Z,30.80
2018-04-24T07:01:38.644Z,31.47
2018-04-24T07:04:07.774Z,27.33
2018-04-24T07:06:35.845Z,40.87
2018-04-24T07:09:03.983Z,25.40
2018-04-24T07:11:32.046Z,34.27
2018-04-24T07:14:00.122Z,25.20
2018-04-24T07:16:28.325Z,24.17
2018-04-24T07:18:56.397Z,28.47
2018-04-24T07:21:24.473Z,25.83
2018-04-24T07:23:53.089Z,25.67
2018-04-24T07:26:21.160Z,31.63
2018-04-24T07:28:49.245Z,31.33
2018-04-24T07:31:18.537Z,26.60
2018-04-24T07:33:46.617Z,29.50
2018-04-24T07:36:14.689Z,23.73
2018-04-24T07:38:43.416Z,27.43
2018-04-24T07:41:11.536Z,23.90
2018-04-24T07:43:39.547Z,22.20
2018-04-24T07:46:07.907Z,23.17
2018-04-24T07:48:35.965Z,26.93
2018-04-24T07:51:04.806Z,20.90
2018-04-24T07:53:33.332Z,26.43
2018-04-24T07:56:01.403Z,23.30
2018-04-24T07:58:29.497Z,20.90
2018-04-24T08:00:58.480Z,22.93
2018-04-24T08:03:27.322Z,23.30
2018-04-24T08:05:55.794Z,30.13
2018-04-24T08:08:24.222Z,26.80
2018-04-24T08:10:53.057Z,23.47
2018-04-24T08:13:21.129Z,22.93
2018-04-24T08:15:49.364Z,27.17
2018-04-24T08:18:18.200Z,20.10
2018-04-24T08:20:46.273Z,19.17
2018-04-24T08:23:14.792Z,29.73
2018-04-24T08:25:42.874Z,21.77
2018-04-24T08:28:11.706Z,25.90
2018-04-24T08:30:40.233Z,18.93
2018-04-24T08:33:08.307Z,21.27
2018-04-24T08:35:36.388Z,25.73
2018-04-24T08:38:05.677Z,20.63
2018-04-24T08:40:33.743Z,19.73
2018-04-24T08:43:01.829Z,22.33
2018-04-24T08:45:30.878Z,25.50
2018-04-24T08:47:59.042Z,25.43
2018-04-24T08:50:27.024Z,25.47
2018-04-24T08:52:55.217Z,20.53
2018-04-24T08:55:23.283Z,28.93
2018-04-24T08:57:51.380Z,23.60
2018-04-24T09:00:19.875Z,25.53
2018-04-24T09:02:48.733Z,19.53
2018-04-24T09:05:16.802Z,25.77
2018-04-24T09:07:45.754Z,21.77
2018-04-24T09:10:13.845Z,17.57
2018-04-24T09:12:41.923Z,23.50
2018-04-24T09:15:10.189Z,25.20
2018-04-24T09:17:38.269Z,14.50
2018-04-24T09:20:06.325Z,14.60
2018-04-24T09:22:34.934Z,19.87
2018-04-24T09:25:03.014Z,16.53
2018-04-24T09:27:31.073Z,20.83
2018-04-24T09:30:02.139Z,17.07
2018-04-24T09:32:30.219Z,20.67
2018-04-24T09:34:59.072Z,20.40
2018-04-24T09:37:27.683Z,15.17
2018-04-24T09:39:56.519Z,14.43
2018-04-24T09:42:24.578Z,20.30
2018-04-24T09:44:53.109Z,11.33
2018-04-24T09:47:21.166Z,9.47
2018-04-24T09:49:49.269Z,13.33
2018-04-24T09:52:18.544Z,16.00
2018-04-24T09:54:46.600Z,17.17
2018-04-24T09:57:14.672Z,15.90
2018-04-24T09:59:43.069Z,14.60
2018-04-24T10:02:11.188Z,13.50
2018-04-24T10:04:39.208Z,10.67
2018-04-24T10:07:07.603Z,8.90
2018-04-24T10:09:36.320Z,15.73
2018-04-24T10:12:05.131Z,9.30
2018-04-24T10:14:33.339Z,9.33
2018-04-24T10:17:01.409Z,5.90
2018-04-24T10:19:29.477Z,15.20
2018-04-24T10:21:57.867Z,14.33
2018-04-24T10:24:25.933Z,10.47
2018-04-24T10:26:53.995Z,5.27
2018-04-24T10:29:22.391Z,10.50
2018-04-24T10:31:50.448Z,8.60
2018-04-24T10:34:18.510Z,10.80
2018-04-24T10:36:46.963Z,9.93
2018-04-24T10:39:15.024Z,9.90
2018-04-24T10:41:43.074Z,9.27
2018-04-24T10:44:12.345Z,9.43
2018-04-24T10:46:40.410Z,7.60
2018-04-24T10:49:08.481Z,13.80
2018-04-24T10:51:37.242Z,10.53
2018-04-24T10:54:06.009Z,8.70
2018-04-24T10:56:34.072Z,11.33
2018-04-24T10:59:02.477Z,8.73
2018-04-24T11:01:30.541Z,10.37
2018-04-24T11:03:58.593Z,12.37
2018-04-24T11:06:26.820Z,10.33
2018-04-24T11:08:54.882Z,5.53
2018-04-24T11:11:23.540Z,8.40
2018-04-24T11:13:51.948Z,15.47
2018-04-24T11:16:19.999Z,9.60
2018-04-24T11:18:48.881Z,9.77
2018-04-24T11:21:17.471Z,8.20
2018-04-24T11:23:46.242Z,6.63
2018-04-24T11:26:14.471Z,12.43
2018-04-24T11:28:43.155Z,10.50
2018-04-24T11:31:11.485Z,8.10
2018-04-24T11:33:39.553Z,12.10
2018-04-24T11:36:07.989Z,9.37
2018-04-24T11:38:36.039Z,4.97
2018-04-24T11:41:04.125Z,9.87
2018-04-24T11:43:32.500Z,10.60
2018-04-24T11:46:00.553Z,12.53
2018-04-24T11:48:28.625Z,10.77
2018-04-24T11:50:57.125Z,7.53
2018-04-24T11:53:25.181Z,15.93
2018-04-24T11:55:53.280Z,6.83
2018-04-24T11:58:21.539Z,19.23
2018-04-24T12:00:49.595Z,7.27
2018-04-24T12:03:17.670Z,8.27
2018-04-24T12:05:46.054Z,8.47
2018-04-24T12:08:14.108Z,8.63
2018-04-24T12:10:42.179Z,12.37
2018-04-24T12:13:11.061Z,9.37
2018-04-24T12:15:39.141Z,7.80
2018-04-24T12:18:07.177Z,6.47
2018-04-24T12:20:35.405Z,10.17
2018-04-24T12:23:03.456Z,8.23
2018-04-24T12:25:31.527Z,6.70
2018-04-24T12:27:59.952Z,12.17
2018-04-24T12:30:28.021Z,15.00
2018-04-24T12:32:56.093Z,8.30
2018-04-24T12:35:25.106Z,7.33
2018-04-24T12:37:53.170Z,12.33
2018-04-24T12:40:22.002Z,8.60
2018-04-24T12:42:50.251Z,5.93
2018-04-24T12:45:18.393Z,12.03
2018-04-24T12:47:46.365Z,11.47
2018-04-24T12:50:15.650Z,7.23
2018-04-24T12:52:43.738Z,5.80
2018-04-24T12:55:12.565Z,18.73
2018-04-24T12:57:40.765Z,9.60
2018-04-24T13:00:08.851Z,8.90
2018-04-24T13:02:36.897Z,7.10
2018-04-24T13:05:05.305Z,11.83
2018-04-24T13:07:33.370Z,4.60
2018-04-24T13:10:01.438Z,6.20
2018-04-24T13:12:29.803Z,7.37
2018-04-24T13:14:58.120Z,11.60
2018-04-24T13:17:26.174Z,10.40
2018-04-24T13:19:54.647Z,4.80
2018-04-24T13:22:22.712Z,8.63
2018-04-24T13:24:50.771Z,9.57
2018-04-24T13:27:19.163Z,12.03
2018-04-24T13:29:47.261Z,8.97
2018-04-24T13:32:16.080Z,10.03
2018-04-24T13:34:44.290Z,8.87
2018-04-24T13:37:12.388Z,14.07
2018-04-24T13:39:41.212Z,6.20
2018-04-24T13:42:09.791Z,6.53
2018-04-24T13:44:38.612Z,4.40
2018-04-24T13:47:06.668Z,7.07
2018-04-24T13:49:34.869Z,14.17
2018-04-24T13:52:02.954Z,22.47
2018-04-24T13:54:31.045Z,9.10
2018-04-24T13:57:00.008Z,10.13
2018-04-24T13:59:28.084Z,12.40
2018-04-24T14:01:56.434Z,6.33
2018-04-24T14:04:24.868Z,13.07
2018-04-24T14:06:53.742Z,12.93
2018-04-24T14:09:21.796Z,12.27
2018-04-24T14:11:50.281Z,16.20
2018-04-24T14:14:18.354Z,10.63
2018-04-24T14:16:46.891Z,7.00
2018-04-24T14:19:15.117Z,8.63
2018-04-24T14:21:43.213Z,10.80
2018-04-24T14:24:11.237Z,16.50
2018-04-24T14:26:39.651Z,14.83
2018-04-24T14:29:08.477Z,14.83
2018-04-24T14:31:36.533Z,14.67
2018-04-24T14:34:05.075Z,11.63
2018-04-24T14:36:33.138Z,11.57
2018-04-24T14:39:01.203Z,8.30
2018-04-24T14:41:29.908Z,15.50
2018-04-24T14:43:57.981Z,10.53
2018-04-24T14:46:26.036Z,14.60
2018-04-24T14:48:54.466Z,11.90
2018-04-24T14:51:22.524Z,17.53
2018-04-24T14:53:51.390Z,12.70
2018-04-24T14:56:19.871Z,12.70
2018-04-24T14:58:47.944Z,12.80
2018-04-24T15:01:16.768Z,6.60
2018-04-24T15:03:45.218Z,7.93
2018-04-24T15:06:13.293Z,13.70
2018-04-24T15:08:41.350Z,14.13
2018-04-24T15:11:09.873Z,10.10
2018-04-24T15:13:38.696Z,17.57
2018-04-24T15:16:06.760Z,11.20
2018-04-24T15:18:35.739Z,6.33
2018-04-24T15:21:03.799Z,15.63
2018-04-24T15:23:31.871Z,8.27
2018-04-24T15:26:00.405Z,7.50
2018-04-24T15:28:28.472Z,10.73
2018-04-24T15:30:56.541Z,10.40
2018-04-24T15:33:24.922Z,13.03
2018-04-24T15:35:52.977Z,11.80
2018-04-24T15:38:21.092Z,13.20
2018-04-24T15:40:50.051Z,12.63
2018-04-24T15:43:18.124Z,8.83
2018-04-24T15:45:46.207Z,18.20
2018-04-24T15:48:14.393Z,12.73
2018-04-24T15:50:42.458Z,8.83
2018-04-24T15:53:10.507Z,17.33
2018-04-24T15:55:38.876Z,11.97
2018-04-24T15:58:06.950Z,9.30
2018-04-24T16:00:35.015Z,10.73
2018-04-24T16:03:03.406Z,9.83
2018-04-24T16:05:31.644Z,13.90
2018-04-24T16:07:59.688Z,14.80
2018-04-24T16:10:28.140Z,10.77
2018-04-24T16:12:56.198Z,12.73
2018-04-24T16:15:24.258Z,9.60
2018-04-24T16:17:52.661Z,9.87
2018-04-24T16:20:21.201Z,7.47
2018-04-24T16:22:49.251Z,12.00
2018-04-24T16:25:17.496Z,10.07
2018-04-24T16:27:46.740Z,9.03
2018-04-24T16:30:14.799Z,16.23
2018-04-24T16:32:43.235Z,12.00
2018-04-24T16:35:11.297Z,11.07
2018-04-24T16:37:39.384Z,13.10
2018-04-24T16:40:07.496Z,14.30
2018-04-24T16:42:35.571Z,7.23
2018-04-24T16:45:03.641Z,15.00
2018-04-24T16:47:31.960Z,9.30
2018-04-24T16:50:00.061Z,9.47
2018-04-24T16:52:28.887Z,9.67
2018-04-24T16:54:57.393Z,6.57
2018-04-24T16:57:25.482Z,10.47
2018-04-24T16:59:53.547Z,9.93
2018-04-24T17:02:21.978Z,12.10
2018-04-24T17:04:50.030Z,15.47
2018-04-24T17:07:18.863Z,15.03
2018-04-24T17:09:47.385Z,12.57
2018-04-24T17:12:16.208Z,9.33
2018-04-24T17:14:44.293Z,16.80
2018-04-24T17:17:12.565Z,9.60
2018-04-24T17:19:41.365Z,9.90
2018-04-24T17:22:10.657Z,17.27
2018-04-24T17:24:38.856Z,19.80
2018-04-24T17:27:06.957Z,10.93
2018-04-24T17:29:35.785Z,9.57
2018-04-24T17:32:04.014Z,13.27
2018-04-24T17:34:32.096Z,8.60
2018-04-24T17:37:00.917Z,14.13
2018-04-24T17:39:29.439Z,6.03
2018-04-24T17:41:57.512Z,10.00
2018-04-24T17:44:25.595Z,12.10
2018-04-24T17:46:54.262Z,9.17
2018-04-24T17:49:22.338Z,14.07
2018-04-24T17:51:50.416Z,14.30
2018-04-24T17:54:18.794Z,18.90
2018-04-24T17:56:46.855Z,8.73
2018-04-24T17:59:14.914Z,16.37
2018-04-24T18:01:43.618Z,9.17
2018-04-24T18:04:11.693Z,10.57
2018-04-24T18:06:39.761Z,12.30
2018-04-24T18:09:08.436Z,10.90
2018-04-24T18:11:36.640Z,12.70
2018-04-24T18:14:04.608Z,12.20
2018-04-24T18:16:33.278Z,10.97
2018-04-24T18:19:01.350Z,12.97
2018-04-24T18:21:29.413Z,9.27
2018-04-24T18:23:58.269Z,11.53
2018-04-24T18:26:26.326Z,8.63
2018-04-24T18:28:54.417Z,12.40
2018-04-24T18:31:22.616Z,7.90
2018-04-24T18:33:50.674Z,8.80
2018-04-24T18:36:18.774Z,17.23
2018-04-24T18:38:47.449Z,11.53
2018-04-24T18:41:15.513Z,11.13
2018-04-24T18:43:43.632Z,8.97
2018-04-24T18:46:12.902Z,7.23
2018-04-24T18:48:40.962Z,12.87
2018-04-24T18:51:09.034Z,10.40
2018-04-24T18:53:37.407Z,18.53
2018-04-24T18:56:05.477Z,12.00
2018-04-24T18:58:33.556Z,14.33
2018-04-24T19:01:01.943Z,11.70
2018-04-24T19:03:30.004Z,17.20
2018-04-24T19:05:58.094Z,14.27
2018-04-24T19:08:27.054Z,12.20
2018-04-24T19:10:55.125Z,17.23
2018-04-24T19:13:23.201Z,11.43
2018-04-24T19:15:51.893Z,10.30
2018-04-24T19:18:25.522Z,9.53
2018-04-24T19:20:54.807Z,11.30
2018-04-24T19:23:22.868Z,15.90
2018-04-24T19:25:51.723Z,14.03
2018-04-24T19:28:20.590Z,9.87
2018-04-24T19:30:49.400Z,10.83
2018-04-24T19:33:17.469Z,9.47
2018-04-24T19:35:45.749Z,23.93
2018-04-24T19:38:13.832Z,11.87
2018-04-24T19:40:47.508Z,12.60
2018-04-24T19:43:15.728Z,12.47
2018-04-24T19:45:43.802Z,14.63
2018-04-24T19:48:17.433Z,10.53
2018-04-24T19:50:46.312Z,8.33
2018-04-24T19:53:15.144Z,10.80
2018-04-24T19:55:43.212Z,8.63
2018-04-24T19:58:11.609Z,11.10
2018-04-24T20:00:39.677Z,11.93
2018-04-24T20:03:07.751Z,16.10
2018-04-24T20:05:36.143Z,14.33
2018-04-24T20:08:04.197Z,9.40
2018-04-24T20:10:32.627Z,18.20
2018-04-24T20:13:00.909Z,13.60
2018-04-24T20:15:29.737Z,16.43
2018-04-24T20:17:57.874Z,15.83
2018-04-24T20:20:26.401Z,12.07
2018-04-24T20:22:54.493Z,17.30
2018-04-24T20:25:22.587Z,11.53
2018-04-24T20:27:51.311Z,9.63
2018-04-24T20:30:19.507Z,14.23
2018-04-24T20:32:47.569Z,11.00
2018-04-24T20:35:15.969Z,13.07
2018-04-24T20:37:44.048Z,17.17
2018-04-24T20:40:12.116Z,10.47
2018-04-24T20:42:40.486Z,10.80
2018-04-24T20:45:08.567Z,11.13
2018-04-24T20:47:36.632Z,22.20
2018-04-24T20:50:05.023Z,10.10
2018-04-24T20:52:33.122Z,11.40
2018-04-24T20:55:01.182Z,12.90
2018-04-24T20:57:30.196Z,13.17
2018-04-24T20:59:58.286Z,17.30
2018-04-24T21:02:26.354Z,13.63
2018-04-24T21:04:54.970Z,14.57
2018-04-24T21:07:23.049Z,13.20
2018-04-24T21:09:51.113Z,16.17
2018-04-24T21:12:19.793Z,13.30
2018-04-24T21:14:47.893Z,12.93
2018-04-24T21:17:16.721Z,8.17
2018-04-24T21:19:45.240Z,17.07
2018-04-24T21:22:13.355Z,14.00
2018-04-24T21:24:41.409Z,10.87
2018-04-24T21:27:10.690Z,21.43
2018-04-24T21:29:39.229Z,20.60
2018-04-24T21:32:07.288Z,11.60
2018-04-24T21:34:35.812Z,8.07
2018-04-24T21:37:03.881Z,14.10
2018-04-24T21:39:31.951Z,12.47
2018-04-24T21:42:00.353Z,16.30
2018-04-24T21:44:28.421Z,11.23
2018-04-24T21:46:56.485Z,13.13
2018-04-24T21:49:24.898Z,9.20
2018-04-24T21:51:53.718Z,9.53
2018-04-24T21:54:21.792Z,19.93
2018-04-24T21:56:50.008Z,10.10
2018-04-24T21:59:18.076Z,17.47
2018-04-24T22:01:46.196Z,11.10
2018-04-24T22:04:14.524Z,12.80
2018-04-24T22:06:42.584Z,15.50
2018-04-24T22:09:10.649Z,8.83
2018-04-24T22:11:39.076Z,7.70
2018-04-24T22:14:07.899Z,12.67
2018-04-24T22:16:35.957Z,19.57
2018-04-24T22:19:04.193Z,15.73
2018-04-24T22:21:32.237Z,11.33
2018-04-24T22:24:00.301Z,12.37
2018-04-24T22:26:28.755Z,14.60
2018-04-24T22:28:56.815Z,14.13
2018-04-24T22:31:25.309Z,18.27
2018-04-24T22:33:53.842Z,14.80
2018-04-24T22:36:21.901Z,10.80
2018-04-24T22:38:49.970Z,22.87
2018-04-24T22:41:18.653Z,22.33
2018-04-24T22:43:46.751Z,14.13
2018-04-24T22:46:15.580Z,10.77
2018-04-24T22:48:44.089Z,13.93
2018-04-24T22:51:12.161Z,25.37
2018-04-24T22:53:40.231Z,13.70
2018-04-24T22:56:08.476Z,22.93
2018-04-24T22:58:36.552Z,10.97
2018-04-24T23:01:04.617Z,24.40
2018-04-24T23:03:33.008Z,11.97
2018-04-24T23:06:01.065Z,12.77
2018-04-24T23:08:29.127Z,16.17
2018-04-24T23:11:09.062Z,17.77
2018-04-24T23:13:48.845Z,15.57
2018-04-24T23:16:28.751Z,19.17
2018-04-24T23:19:08.653Z,21.53
2018-04-24T23:21:36.236Z,17.43
2018-04-24T23:24:04.733Z,21.10
2018-04-24T23:26:33.578Z,17.70
2018-04-24T23:29:01.646Z,16.20
2018-04-24T23:31:30.624Z,16.03
2018-04-24T23:33:58.695Z,19.00
2018-04-24T23:36:26.756Z,18.70
2018-04-24T23:38:55.183Z,22.10
2018-04-24T23:41:23.248Z,18.87
2018-04-24T23:43:51.363Z,17.27
2018-04-24T23:46:20.436Z,22.40
2018-04-24T23:48:48.504Z,19.80
2018-04-24T23:51:16.574Z,15.00
2018-04-24T23:53:45.017Z,17.37
2018-04-24T23:56:13.091Z,17.87
2018-04-24T23:58:41.154Z,17.10
